KMDH/MDH METAR and TAF weather

Enter ICAO airport designator
Station Type Date Time Source
KMDH METAR 2024/02/26 15:52 UTC NOAA

KMDH 261552Z 20009KT 10SM CLR 18/07 A2986 RMK AO2 SLP109 T01830072


Station Type Date Time Source
KMDH Decoded METAR 2024/02/26 15:52 UTC NOAA

SOUTHERN ILLINOIS AIRPORT, IL, United States (KMDH) 37-47N 089-15W 130M
Feb 26, 2024 - 10:52 AM EST / 2024.02.26 1552 UTC
Wind: from the SSW (200 degrees) at 10 MPH (9 KT):0
Visibility: 10 mile(s):0
Sky conditions: clear
Temperature: 64.9 F (18.3 C)
Dew Point: 45.0 F (7.2 C)
Relative Humidity: 48%
Pressure (altimeter): 29.86 in. Hg (1011 hPa)
ob: KMDH 261552Z 20009KT 10SM CLR 18/07 A2986 RMK AO2 SLP109 T01830072
cycle: 16

Station Type Date Time Source
KMDH TAF UTC NOAA

Error!

Example: see airport list